createdAt,value
2022-11-11T00:01:15.549Z,8.68
2022-11-11T00:04:00.930Z,8.69
2022-11-11T00:06:47.663Z,8.54
2022-11-11T00:09:33.285Z,8.18
2022-11-11T00:12:19.191Z,8.01
2022-11-11T00:15:05.483Z,8.15
2022-11-11T00:18:09.259Z,8.23
2022-11-11T00:21:12.952Z,8.15
2022-11-11T00:24:16.961Z,8.01
2022-11-11T00:27:03.181Z,8.03
2022-11-11T00:29:48.401Z,7.99
2022-11-11T00:32:34.067Z,7.95
2022-11-11T00:35:38.095Z,7.88
2022-11-11T00:38:42.387Z,8.00
2022-11-11T00:41:27.832Z,8.09
2022-11-11T00:44:13.539Z,8.29
2022-11-11T00:47:17.495Z,8.43
2022-11-11T00:50:26.500Z,8.54
2022-11-11T00:53:14.486Z,8.52
2022-11-11T00:56:00.132Z,8.40
2022-11-11T00:58:45.603Z,8.43
2022-11-11T01:01:31.241Z,8.35
2022-11-11T01:04:17.145Z,8.26
2022-11-11T01:07:02.690Z,8.07
2022-11-11T01:09:48.108Z,8.12
2022-11-11T01:12:33.534Z,8.06
2022-11-11T01:15:19.113Z,7.96
2022-11-11T01:18:05.201Z,7.93
2022-11-11T01:21:05.759Z,7.96
2022-11-11T01:23:53.430Z,8.10
2022-11-11T01:26:38.793Z,7.89
2022-11-11T01:29:24.171Z,7.72
2022-11-11T01:32:09.590Z,7.67
2022-11-11T01:34:54.961Z,7.82
2022-11-11T01:37:40.252Z,7.89
2022-11-11T01:40:25.882Z,7.91
2022-11-11T01:43:11.377Z,8.06
2022-11-11T01:46:03.720Z,8.07
2022-11-11T01:49:12.496Z,7.93
2022-11-11T01:52:22.960Z,8.06
2022-11-11T01:55:15.451Z,8.13
2022-11-11T01:58:06.298Z,8.06
2022-11-11T02:00:51.744Z,7.96
2022-11-11T02:03:40.859Z,8.02
2022-11-11T02:06:28.586Z,8.07
2022-11-11T02:09:14.325Z,7.97
2022-11-11T02:12:24.337Z,8.04
2022-11-11T02:15:10.125Z,8.03
2022-11-11T02:17:55.327Z,8.08
2022-11-11T02:20:45.183Z,8.15
2022-11-11T02:23:33.765Z,8.13
2022-11-11T02:26:19.896Z,8.17
2022-11-11T02:29:12.694Z,8.13
2022-11-11T02:31:58.521Z,8.19
2022-11-11T02:34:44.233Z,8.04
2022-11-11T02:37:29.785Z,8.02
2022-11-11T02:40:23.660Z,8.05
2022-11-11T02:43:09.081Z,7.70
2022-11-11T02:45:54.730Z,7.41
2022-11-11T02:48:40.575Z,7.45
2022-11-11T02:51:25.879Z,7.57
2022-11-11T02:54:11.564Z,7.60
2022-11-11T02:57:09.425Z,7.44
2022-11-11T02:59:57.866Z,7.52
2022-11-11T03:02:43.577Z,7.54
2022-11-11T03:05:29.016Z,7.75
2022-11-11T03:08:14.240Z,7.79
2022-11-11T03:10:59.344Z,7.87
2022-11-11T03:13:44.982Z,7.79
2022-11-11T03:16:49.311Z,7.62
2022-11-11T03:19:35.545Z,7.58
2022-11-11T03:25:38.690Z,7.58
2022-11-11T03:28:27.062Z,7.54
2022-11-11T03:31:12.333Z,7.66
2022-11-11T03:34:17.772Z,7.77
2022-11-11T03:37:25.728Z,7.99
2022-11-11T03:40:11.538Z,8.04
2022-11-11T03:43:03.873Z,8.02
2022-11-11T03:45:51.311Z,8.09
2022-11-11T03:48:37.045Z,7.99
2022-11-11T03:51:22.374Z,8.00
2022-11-11T03:54:07.753Z,7.85
2022-11-11T03:57:13.451Z,7.80
2022-11-11T03:59:58.693Z,7.71
2022-11-11T04:03:02.226Z,7.70
2022-11-11T04:06:05.734Z,7.66
2022-11-11T04:09:09.932Z,7.44
2022-11-11T04:11:55.011Z,7.48
2022-11-11T04:14:58.858Z,7.39
2022-11-11T04:17:44.788Z,7.53
2022-11-11T04:20:48.824Z,7.54
2022-11-11T04:23:33.903Z,7.57
2022-11-11T04:26:19.530Z,7.46
2022-11-11T04:29:23.858Z,7.45
2022-11-11T04:32:35.654Z,7.37
2022-11-11T04:35:21.242Z,7.30
2022-11-11T04:38:25.082Z,6.95
2022-11-11T04:41:11.302Z,6.54
2022-11-11T04:44:15.206Z,6.70
2022-11-11T04:47:00.467Z,6.38
2022-11-11T04:49:46.260Z,6.44
2022-11-11T04:52:32.095Z,6.63
2022-11-11T04:55:36.846Z,6.66
2022-11-11T04:58:25.155Z,6.65
2022-11-11T05:01:10.854Z,6.70
2022-11-11T05:03:56.173Z,6.78
2022-11-11T05:07:00.225Z,6.86
2022-11-11T05:09:45.731Z,6.78
2022-11-11T05:12:32.581Z,6.94
2022-11-11T05:15:36.339Z,6.91
2022-11-11T05:18:40.472Z,6.50
2022-11-11T05:21:28.255Z,6.63
2022-11-11T05:24:32.479Z,6.80
2022-11-11T05:27:18.227Z,6.71
2022-11-11T05:30:06.293Z,6.54
2022-11-11T05:32:52.180Z,6.43
2022-11-11T05:35:37.502Z,6.24
2022-11-11T05:38:23.061Z,6.04
2022-11-11T05:41:09.720Z,6.40
2022-11-11T05:43:54.910Z,6.53
2022-11-11T05:46:40.335Z,6.60
2022-11-11T05:49:26.228Z,6.94
2022-11-11T05:52:13.830Z,7.06
2022-11-11T05:54:59.460Z,7.58
2022-11-11T05:57:45.184Z,8.08
2022-11-11T06:00:30.334Z,8.46
2022-11-11T06:03:15.893Z,8.78
2022-11-11T06:06:01.315Z,8.99
2022-11-11T06:08:46.781Z,9.24
2022-11-11T06:11:33.177Z,9.29
2022-11-11T06:14:18.938Z,9.46
2022-11-11T06:17:04.456Z,9.99
2022-11-11T06:19:49.757Z,10.19
2022-11-11T06:22:56.032Z,10.62
2022-11-11T06:26:00.038Z,10.74
2022-11-11T06:28:47.292Z,10.62
2022-11-11T06:31:32.801Z,10.79
2022-11-11T06:34:18.235Z,10.76
2022-11-11T06:37:03.611Z,10.92
2022-11-11T06:39:48.974Z,10.81
2022-11-11T06:42:38.195Z,11.03
2022-11-11T06:45:28.439Z,10.41
2022-11-11T06:48:13.786Z,9.90
2022-11-11T06:51:05.093Z,9.60
2022-11-11T06:53:50.506Z,9.80
2022-11-11T06:56:35.741Z,10.26
2022-11-11T06:59:21.037Z,9.93
2022-11-11T07:02:06.743Z,9.82
2022-11-11T07:04:52.104Z,9.72
2022-11-11T07:07:37.337Z,9.32
2022-11-11T07:10:22.897Z,9.49
2022-11-11T07:13:08.641Z,9.85
2022-11-11T07:15:53.872Z,10.24
2022-11-11T07:18:39.233Z,10.96
2022-11-11T07:21:24.441Z,11.19
2022-11-11T07:24:09.979Z,11.61
2022-11-11T07:26:55.386Z,11.87
2022-11-11T07:29:40.826Z,12.20
2022-11-11T07:32:26.185Z,12.61
2022-11-11T07:35:11.638Z,12.68
2022-11-11T07:37:57.057Z,12.89
2022-11-11T07:40:42.373Z,12.69
2022-11-11T07:43:27.677Z,12.82
2022-11-11T07:46:13.035Z,13.69
2022-11-11T07:48:58.509Z,13.80
2022-11-11T07:51:43.883Z,14.49
2022-11-11T07:54:29.106Z,14.74
2022-11-11T07:57:14.764Z,15.40
2022-11-11T07:59:59.970Z,15.33
2022-11-11T08:02:49.354Z,15.58
2022-11-11T08:05:34.731Z,15.31
2022-11-11T08:08:25.706Z,15.17
2022-11-11T08:11:12.189Z,14.77
2022-11-11T08:13:57.790Z,14.50
2022-11-11T08:16:43.068Z,14.42
2022-11-11T08:19:28.474Z,14.22
2022-11-11T08:22:14.088Z,14.16
2022-11-11T08:25:04.406Z,14.00
2022-11-11T08:27:56.694Z,13.90
2022-11-11T08:30:42.450Z,13.72
2022-11-11T08:33:44.024Z,13.75
2022-11-11T08:36:29.834Z,13.62
2022-11-11T08:39:15.267Z,13.60
2022-11-11T08:42:00.685Z,13.53
2022-11-11T08:44:47.125Z,13.55
2022-11-11T08:47:32.552Z,13.58
2022-11-11T08:50:18.597Z,13.55
2022-11-11T08:53:04.154Z,13.59
2022-11-11T08:55:49.606Z,13.56
2022-11-11T08:58:35.378Z,13.55
2022-11-11T09:01:20.884Z,13.58
2022-11-11T09:04:30.079Z,13.49
2022-11-11T09:07:12.527Z,13.54
2022-11-11T09:09:57.732Z,13.56
2022-11-11T09:12:43.077Z,13.69
2022-11-11T09:15:29.593Z,13.83
2022-11-11T09:18:15.073Z,13.78
2022-11-11T09:21:00.901Z,13.78
2022-11-11T09:23:46.018Z,13.79
2022-11-11T09:26:31.424Z,13.71
2022-11-11T09:29:17.521Z,13.66
2022-11-11T09:32:03.057Z,13.63
2022-11-11T09:34:48.305Z,13.56
2022-11-11T09:37:33.750Z,13.53
2022-11-11T09:40:21.781Z,13.49
2022-11-11T09:43:33.132Z,13.47
2022-11-11T09:46:44.562Z,13.36
2022-11-11T09:49:42.400Z,13.32
2022-11-11T09:52:37.392Z,13.31
2022-11-11T09:55:38.670Z,13.23
2022-11-11T09:58:43.746Z,13.16
2022-11-11T10:01:36.753Z,13.23
2022-11-11T10:04:24.840Z,13.16
2022-11-11T10:07:18.408Z,13.16
2022-11-11T10:10:13.557Z,13.34
2022-11-11T10:12:59.913Z,13.61
2022-11-11T10:16:23.923Z,13.85
2022-11-11T10:19:15.650Z,14.00
2022-11-11T10:22:12.757Z,14.22
2022-11-11T10:25:21.073Z,14.42
2022-11-11T10:28:08.146Z,14.46
2022-11-11T10:30:55.657Z,14.51
2022-11-11T10:33:54.830Z,14.53
2022-11-11T10:36:46.405Z,14.65
2022-11-11T10:40:00.903Z,14.60
2022-11-11T10:42:46.037Z,14.55
2022-11-11T10:46:02.712Z,14.56
2022-11-11T10:48:57.392Z,14.48
2022-11-11T10:51:51.769Z,14.44
2022-11-11T10:54:55.264Z,14.39
2022-11-11T10:58:01.937Z,14.37
2022-11-11T11:00:50.510Z,14.29
2022-11-11T11:03:53.805Z,14.22
2022-11-11T11:06:44.352Z,14.21
2022-11-11T11:09:45.841Z,14.14
2022-11-11T11:12:47.169Z,14.12
2022-11-11T11:15:35.862Z,14.06
2022-11-11T11:18:21.423Z,14.00
2022-11-11T11:21:08.643Z,13.97
2022-11-11T11:23:53.924Z,13.88
2022-11-11T11:26:48.614Z,13.95
2022-11-11T11:29:43.122Z,13.93
2022-11-11T11:32:30.927Z,13.98
2022-11-11T11:35:37.784Z,13.92
2022-11-11T11:38:40.927Z,13.86
2022-11-11T11:41:50.286Z,13.83
2022-11-11T11:44:40.294Z,13.81
2022-11-11T11:47:34.819Z,13.81
2022-11-11T11:50:38.818Z,13.86
2022-11-11T11:53:57.163Z,13.83
2022-11-11T11:56:45.875Z,13.86
2022-11-11T11:59:49.724Z,13.78
2022-11-11T12:02:58.385Z,13.77
2022-11-11T12:05:50.682Z,13.85
2022-11-11T12:09:00.873Z,13.77
2022-11-11T12:11:46.274Z,13.70
2022-11-11T12:15:22.752Z,13.66
2022-11-11T12:18:33.582Z,13.68
2022-11-11T12:21:24.558Z,13.64
2022-11-11T12:24:10.033Z,13.64
2022-11-11T12:27:14.184Z,13.63
2022-11-11T12:30:14.305Z,13.69
2022-11-11T12:33:06.328Z,13.70
2022-11-11T12:36:17.907Z,13.70
2022-11-11T12:39:12.514Z,13.76
2022-11-11T12:42:26.782Z,13.85
2022-11-11T12:45:22.068Z,13.85
2022-11-11T12:48:32.749Z,13.84
2022-11-11T12:51:36.748Z,13.85
2022-11-11T12:54:43.514Z,13.90
2022-11-11T12:57:34.713Z,13.94
2022-11-11T13:00:22.214Z,13.87
2022-11-11T13:04:01.673Z,13.76
2022-11-11T13:07:04.347Z,13.72
2022-11-11T13:09:56.434Z,13.60
2022-11-11T13:12:55.481Z,13.43
2022-11-11T13:15:41.099Z,13.40
2022-11-11T13:19:12.101Z,13.26
2022-11-11T13:22:13.088Z,13.21
2022-11-11T13:25:04.238Z,13.20
2022-11-11T13:27:55.400Z,13.14
2022-11-11T13:30:53.010Z,13.10
2022-11-11T13:33:49.174Z,13.03
2022-11-11T13:36:41.203Z,13.00
2022-11-11T13:39:34.572Z,12.95
2022-11-11T13:42:26.556Z,12.87
2022-11-11T13:45:26.870Z,12.79
2022-11-11T13:48:31.421Z,12.83
2022-11-11T13:51:19.928Z,12.82
2022-11-11T13:54:20.317Z,12.84
2022-11-11T13:57:15.529Z,12.78
2022-11-11T14:00:24.667Z,12.72
2022-11-11T14:03:22.880Z,12.59
2022-11-11T14:06:14.584Z,12.52
2022-11-11T14:09:00.302Z,12.55
2022-11-11T14:11:45.725Z,12.65
2022-11-11T14:14:37.231Z,12.49
2022-11-11T14:17:23.214Z,12.52
2022-11-11T14:20:42.074Z,12.47
2022-11-11T14:23:30.685Z,12.42
2022-11-11T14:26:24.382Z,12.46
2022-11-11T14:29:19.664Z,12.36
2022-11-11T14:32:14.202Z,12.34
2022-11-11T14:35:19.994Z,12.43
2022-11-11T14:38:28.359Z,12.44
2022-11-11T14:41:53.537Z,12.43
2022-11-11T14:44:41.154Z,12.39
2022-11-11T14:47:42.119Z,12.32
2022-11-11T14:50:33.324Z,12.27
2022-11-11T14:53:21.002Z,12.46
2022-11-11T14:56:16.592Z,12.38
2022-11-11T14:59:07.528Z,12.27
2022-11-11T15:01:55.239Z,12.28
2022-11-11T15:04:41.418Z,12.27
2022-11-11T15:08:05.566Z,12.38
2022-11-11T15:11:06.342Z,12.34
2022-11-11T15:14:19.073Z,12.21
2022-11-11T15:17:35.888Z,12.36
2022-11-11T15:20:52.906Z,12.52
2022-11-11T15:23:49.398Z,12.48
2022-11-11T15:27:00.925Z,12.49
2022-11-11T15:30:07.864Z,12.55
2022-11-11T15:33:12.159Z,12.62
2022-11-11T15:36:16.310Z,12.60
2022-11-11T15:39:13.071Z,12.47
2022-11-11T15:41:58.832Z,12.35
2022-11-11T15:44:44.678Z,12.31
2022-11-11T15:47:35.787Z,12.30
2022-11-11T15:50:23.948Z,12.32
2022-11-11T15:53:12.418Z,12.31
2022-11-11T15:56:00.650Z,12.29
2022-11-11T15:58:46.125Z,12.21
2022-11-11T16:01:31.919Z,12.22
2022-11-11T16:04:54.073Z,12.35
2022-11-11T16:07:32.117Z,12.50
2022-11-11T16:10:29.777Z,12.51
2022-11-11T16:13:14.977Z,12.48
2022-11-11T16:16:09.324Z,12.40
2022-11-11T16:19:03.581Z,12.36
2022-11-11T16:21:57.927Z,12.29
2022-11-11T16:24:45.873Z,12.50
2022-11-11T16:27:33.422Z,12.31
2022-11-11T16:30:24.793Z,12.34
2022-11-11T16:33:40.735Z,12.31
2022-11-11T16:36:26.666Z,12.43
2022-11-11T16:39:19.338Z,12.32
2022-11-11T16:42:08.207Z,12.42
2022-11-11T16:45:01.295Z,12.34
2022-11-11T16:47:49.247Z,12.40
2022-11-11T16:50:53.219Z,12.33
2022-11-11T16:53:46.833Z,12.31
2022-11-11T16:56:33.940Z,12.32
2022-11-11T16:59:34.326Z,12.34
2022-11-11T17:02:22.467Z,12.29
2022-11-11T17:05:08.630Z,12.39
2022-11-11T17:07:54.493Z,12.43
2022-11-11T17:10:40.717Z,12.29
2022-11-11T17:13:27.376Z,12.27
2022-11-11T17:16:14.110Z,12.27
2022-11-11T17:19:03.991Z,12.23
2022-11-11T17:21:49.306Z,12.23
2022-11-11T17:24:34.762Z,12.22
2022-11-11T17:27:20.006Z,12.25
2022-11-11T17:30:06.368Z,12.27
2022-11-11T17:32:51.839Z,12.28
2022-11-11T17:35:37.293Z,12.29
2022-11-11T17:38:22.621Z,12.19
2022-11-11T17:41:08.175Z,12.33
2022-11-11T17:43:53.888Z,12.29
2022-11-11T17:46:39.209Z,12.25
2022-11-11T17:49:50.021Z,12.22
2022-11-11T17:52:30.404Z,12.20
2022-11-11T17:55:16.026Z,12.13
2022-11-11T17:58:01.748Z,12.04
2022-11-11T18:00:47.023Z,12.14
2022-11-11T18:03:32.394Z,12.20
2022-11-11T18:06:17.892Z,12.18
2022-11-11T18:09:03.206Z,12.10
2022-11-11T18:11:48.590Z,12.07
2022-11-11T18:14:33.929Z,12.12
2022-11-11T18:17:19.594Z,12.11
2022-11-11T18:20:05.218Z,12.09
2022-11-11T18:22:56.864Z,12.01
2022-11-11T18:25:42.886Z,12.01
2022-11-11T18:28:33.514Z,11.98
2022-11-11T18:31:18.902Z,11.88
2022-11-11T18:34:04.518Z,11.83
2022-11-11T18:36:52.412Z,11.92
2022-11-11T18:39:37.854Z,11.95
2022-11-11T18:42:23.160Z,12.02
2022-11-11T18:45:08.992Z,11.93
2022-11-11T18:47:54.453Z,11.92
2022-11-11T18:50:39.781Z,11.94
2022-11-11T18:53:25.758Z,11.93
2022-11-11T18:56:20.173Z,11.86
2022-11-11T18:59:05.634Z,11.92
2022-11-11T19:01:54.747Z,11.88
2022-11-11T19:04:41.031Z,11.77
2022-11-11T19:07:26.460Z,11.80
2022-11-11T19:10:11.861Z,11.84
2022-11-11T19:12:56.874Z,11.87
2022-11-11T19:15:42.102Z,11.90
2022-11-11T19:18:27.464Z,11.86
2022-11-11T19:21:17.399Z,11.87
2022-11-11T19:24:03.715Z,12.00
2022-11-11T19:26:51.062Z,11.95
2022-11-11T19:29:36.225Z,11.93
2022-11-11T19:32:21.585Z,11.92
2022-11-11T19:35:07.400Z,11.80
2022-11-11T19:37:52.511Z,11.76
2022-11-11T19:40:38.009Z,11.90
2022-11-11T19:43:24.869Z,11.98
2022-11-11T19:46:15.731Z,11.99
2022-11-11T19:49:00.957Z,11.93
2022-11-11T19:51:46.294Z,11.92
2022-11-11T19:54:31.686Z,11.89
2022-11-11T19:57:17.066Z,11.80
2022-11-11T20:00:02.476Z,11.78
2022-11-11T20:02:47.789Z,11.73
2022-11-11T20:05:37.376Z,11.83
2022-11-11T20:08:22.536Z,11.75
2022-11-11T20:11:09.384Z,11.80
2022-11-11T20:13:56.011Z,11.88
2022-11-11T20:16:41.274Z,11.83
2022-11-11T20:19:26.483Z,11.74
2022-11-11T20:22:12.082Z,11.74
2022-11-11T20:24:57.647Z,11.82
2022-11-11T20:27:43.233Z,11.86
2022-11-11T20:30:28.601Z,11.89
2022-11-11T20:33:14.346Z,11.90
2022-11-11T20:36:04.530Z,11.94
2022-11-11T20:38:50.107Z,12.03
2022-11-11T20:41:36.211Z,11.94
2022-11-11T20:44:21.862Z,11.91
2022-11-11T20:47:08.562Z,11.77
2022-11-11T20:49:54.209Z,11.72
2022-11-11T20:52:39.522Z,11.71
2022-11-11T20:55:24.846Z,11.75
2022-11-11T20:58:10.223Z,11.70
2022-11-11T21:01:01.633Z,11.64
2022-11-11T21:03:47.021Z,11.61
2022-11-11T21:06:32.636Z,11.56
2022-11-11T21:09:18.107Z,11.46
2022-11-11T21:12:03.916Z,11.36
2022-11-11T21:14:49.247Z,11.36
2022-11-11T21:17:34.798Z,11.25
2022-11-11T21:20:20.570Z,11.45
2022-11-11T21:23:05.829Z,11.40
2022-11-11T21:25:51.161Z,11.60
2022-11-11T21:28:37.958Z,11.54
2022-11-11T21:31:26.741Z,11.50
2022-11-11T21:34:13.003Z,11.55
2022-11-11T21:36:58.692Z,11.54
2022-11-11T21:39:43.997Z,11.61
2022-11-11T21:42:29.414Z,11.51
2022-11-11T21:45:14.805Z,11.53
2022-11-11T21:48:00.221Z,11.45
2022-11-11T21:50:45.610Z,11.42
2022-11-11T21:53:31.099Z,11.45
2022-11-11T21:56:16.687Z,11.41
2022-11-11T21:59:04.701Z,11.24
2022-11-11T22:01:50.056Z,11.26
2022-11-11T22:04:35.484Z,11.21
2022-11-11T22:07:21.530Z,11.24
2022-11-11T22:10:07.363Z,11.24
2022-11-11T22:12:52.489Z,11.04
2022-11-11T22:15:38.584Z,11.06
2022-11-11T22:18:23.986Z,11.11
2022-11-11T22:21:12.430Z,11.13
2022-11-11T22:24:00.372Z,11.14
2022-11-11T22:26:45.887Z,11.13
2022-11-11T22:29:31.553Z,11.19
2022-11-11T22:32:16.856Z,11.13
2022-11-11T22:35:02.200Z,11.03
2022-11-11T22:37:47.481Z,10.99
2022-11-11T22:40:32.872Z,11.02
2022-11-11T22:43:38.115Z,10.93
2022-11-11T22:46:24.945Z,11.03
2022-11-11T22:49:12.241Z,11.04
2022-11-11T22:51:57.335Z,11.01
2022-11-11T22:54:42.726Z,11.16
2022-11-11T22:57:30.826Z,11.08
2022-11-11T23:00:16.626Z,11.05
2022-11-11T23:03:02.654Z,11.08
2022-11-11T23:05:47.769Z,11.11
2022-11-11T23:08:33.165Z,11.11
2022-11-11T23:11:24.099Z,11.00
2022-11-11T23:14:15.767Z,11.08
2022-11-11T23:17:00.761Z,11.21
2022-11-11T23:19:45.886Z,11.33
2022-11-11T23:22:31.426Z,11.17
2022-11-11T23:25:16.780Z,11.08
2022-11-11T23:28:02.060Z,11.11
2022-11-11T23:30:48.005Z,10.96
2022-11-11T23:33:35.068Z,10.90
2022-11-11T23:36:23.229Z,10.80
2022-11-11T23:39:08.551Z,10.78
2022-11-11T23:41:53.847Z,10.84
2022-11-11T23:44:39.054Z,10.87
2022-11-11T23:47:24.494Z,10.94
2022-11-11T23:50:10.055Z,10.92
2022-11-11T23:52:55.164Z,10.85
2022-11-11T23:55:40.740Z,10.77
2022-11-11T23:58:26.730Z,10.76
